sensor_id;sensor_type;location;lat;lon;timestamp;P1;durP1;ratioP1;P2;durP2;ratioP2
53873;SDS011;62246;50.938;4.058;2022-09-09T00:03:53;9.38;;;2.70;;
53873;SDS011;62246;50.938;4.058;2022-09-09T00:06:30;7.78;;;2.85;;
53873;SDS011;62246;50.938;4.058;2022-09-09T00:09:02;8.70;;;2.25;;
53873;SDS011;62246;50.938;4.058;2022-09-09T00:17:01;7.70;;;2.38;;
53873;SDS011;62246;50.938;4.058;2022-09-09T00:19:38;5.90;;;2.50;;
53873;SDS011;62246;50.938;4.058;2022-09-09T00:22:20;7.10;;;2.22;;
53873;SDS011;62246;50.938;4.058;2022-09-09T00:24:51;11.02;;;2.45;;
53873;SDS011;62246;50.938;4.058;2022-09-09T00:27:39;3.92;;;1.98;;
53873;SDS011;62246;50.938;4.058;2022-09-09T00:30:14;7.28;;;2.35;;
53873;SDS011;62246;50.938;4.058;2022-09-09T00:33:08;9.25;;;2.58;;
53873;SDS011;62246;50.938;4.058;2022-09-09T00:38:21;7.63;;;2.35;;
53873;SDS011;62246;50.938;4.058;2022-09-09T00:44:00;8.68;;;2.33;;
53873;SDS011;62246;50.938;4.058;2022-09-09T00:46:56;7.57;;;2.20;;
53873;SDS011;62246;50.938;4.058;2022-09-09T00:57:29;7.25;;;2.17;;
53873;SDS011;62246;50.938;4.058;2022-09-09T01:05:23;7.63;;;2.05;;
53873;SDS011;62246;50.938;4.058;2022-09-09T01:07:52;4.68;;;1.88;;
53873;SDS011;62246;50.938;4.058;2022-09-09T01:10:27;10.15;;;2.15;;
53873;SDS011;62246;50.938;4.058;2022-09-09T01:12:55;6.50;;;2.20;;
53873;SDS011;62246;50.938;4.058;2022-09-09T01:15:26;5.22;;;1.95;;
53873;SDS011;62246;50.938;4.058;2022-09-09T01:18:00;6.30;;;1.73;;
53873;SDS011;62246;50.938;4.058;2022-09-09T01:20:32;8.40;;;1.80;;
53873;SDS011;62246;50.938;4.058;2022-09-09T01:28:43;8.07;;;2.10;;
53873;SDS011;62246;50.938;4.058;2022-09-09T01:31:11;8.57;;;1.92;;
53873;SDS011;62246;50.938;4.058;2022-09-09T01:33:41;7.85;;;1.70;;
53873;SDS011;62246;50.938;4.058;2022-09-09T01:36:24;6.95;;;1.60;;
53873;SDS011;62246;50.938;4.058;2022-09-09T01:38:58;7.85;;;1.80;;
53873;SDS011;62246;50.938;4.058;2022-09-09T01:41:23;7.57;;;1.85;;
53873;SDS011;62246;50.938;4.058;2022-09-09T01:43:49;8.52;;;1.60;;
53873;SDS011;62246;50.938;4.058;2022-09-09T01:46:15;5.88;;;1.67;;
53873;SDS011;62246;50.938;4.058;2022-09-09T01:48:41;6.93;;;1.80;;
53873;SDS011;62246;50.938;4.058;2022-09-09T01:51:08;8.98;;;2.05;;
53873;SDS011;62246;50.938;4.058;2022-09-09T01:53:38;6.13;;;2.20;;
53873;SDS011;62246;50.938;4.058;2022-09-09T02:04:03;8.65;;;2.90;;
53873;SDS011;62246;50.938;4.058;2022-09-09T02:06:43;8.02;;;2.40;;
53873;SDS011;62246;50.938;4.058;2022-09-09T02:09:11;11.63;;;3.25;;
53873;SDS011;62246;50.938;4.058;2022-09-09T02:11:38;9.02;;;2.70;;
53873;SDS011;62246;50.938;4.058;2022-09-09T02:14:08;7.45;;;2.83;;
53873;SDS011;62246;50.938;4.058;2022-09-09T02:19:17;7.55;;;3.10;;
53873;SDS011;62246;50.938;4.058;2022-09-09T02:21:50;10.02;;;3.10;;
53873;SDS011;62246;50.938;4.058;2022-09-09T02:24:19;9.52;;;3.03;;
53873;SDS011;62246;50.938;4.058;2022-09-09T02:26:45;9.82;;;3.13;;
53873;SDS011;62246;50.938;4.058;2022-09-09T02:29:16;14.43;;;3.22;;
53873;SDS011;62246;50.938;4.058;2022-09-09T02:31:48;10.82;;;3.30;;
53873;SDS011;62246;50.938;4.058;2022-09-09T02:34:14;11.63;;;2.80;;
53873;SDS011;62246;50.938;4.058;2022-09-09T02:36:43;8.77;;;3.00;;
53873;SDS011;62246;50.938;4.058;2022-09-09T02:39:10;12.10;;;3.05;;
53873;SDS011;62246;50.938;4.058;2022-09-09T02:41:38;6.93;;;2.63;;
53873;SDS011;62246;50.938;4.058;2022-09-09T02:44:08;10.32;;;2.90;;
53873;SDS011;62246;50.938;4.058;2022-09-09T02:49:22;12.32;;;3.15;;
53873;SDS011;62246;50.938;4.058;2022-09-09T02:52:02;11.20;;;2.95;;
53873;SDS011;62246;50.938;4.058;2022-09-09T02:54:32;10.18;;;3.17;;
53873;SDS011;62246;50.938;4.058;2022-09-09T02:59:56;13.05;;;2.78;;
53873;SDS011;62246;50.938;4.058;2022-09-09T03:02:23;13.68;;;3.20;;
53873;SDS011;62246;50.938;4.058;2022-09-09T03:04:49;11.57;;;3.03;;
53873;SDS011;62246;50.938;4.058;2022-09-09T03:07:17;11.68;;;3.22;;
53873;SDS011;62246;50.938;4.058;2022-09-09T03:09:45;8.13;;;2.78;;
53873;SDS011;62246;50.938;4.058;2022-09-09T03:12:10;11.43;;;2.65;;
53873;SDS011;62246;50.938;4.058;2022-09-09T03:14:36;9.77;;;3.30;;
53873;SDS011;62246;50.938;4.058;2022-09-09T03:17:03;14.60;;;3.70;;
53873;SDS011;62246;50.938;4.058;2022-09-09T03:19:30;13.93;;;3.80;;
53873;SDS011;62246;50.938;4.058;2022-09-09T03:21:56;11.48;;;3.00;;
53873;SDS011;62246;50.938;4.058;2022-09-09T03:24:23;10.32;;;2.70;;
53873;SDS011;62246;50.938;4.058;2022-09-09T03:26:48;12.00;;;3.25;;
53873;SDS011;62246;50.938;4.058;2022-09-09T03:29:15;14.45;;;3.13;;
53873;SDS011;62246;50.938;4.058;2022-09-09T03:31:42;11.05;;;2.58;;
53873;SDS011;62246;50.938;4.058;2022-09-09T03:34:07;13.95;;;3.22;;
53873;SDS011;62246;50.938;4.058;2022-09-09T03:36:33;12.88;;;3.13;;
53873;SDS011;62246;50.938;4.058;2022-09-09T03:38:59;12.63;;;2.70;;
53873;SDS011;62246;50.938;4.058;2022-09-09T03:41:25;11.57;;;3.10;;
53873;SDS011;62246;50.938;4.058;2022-09-09T03:43:51;14.77;;;3.08;;
53873;SDS011;62246;50.938;4.058;2022-09-09T03:46:17;11.80;;;2.70;;
53873;SDS011;62246;50.938;4.058;2022-09-09T03:48:43;15.52;;;3.33;;
53873;SDS011;62246;50.938;4.058;2022-09-09T03:51:09;11.70;;;3.13;;
53873;SDS011;62246;50.938;4.058;2022-09-09T03:53:35;10.82;;;2.80;;
53873;SDS011;62246;50.938;4.058;2022-09-09T03:56:03;12.38;;;2.80;;
53873;SDS011;62246;50.938;4.058;2022-09-09T03:58:31;15.65;;;2.70;;
53873;SDS011;62246;50.938;4.058;2022-09-09T04:03:25;8.48;;;2.65;;
53873;SDS011;62246;50.938;4.058;2022-09-09T04:05:52;10.68;;;2.97;;
53873;SDS011;62246;50.938;4.058;2022-09-09T04:08:18;9.18;;;2.67;;
53873;SDS011;62246;50.938;4.058;2022-09-09T04:10:45;13.40;;;3.20;;
53873;SDS011;62246;50.938;4.058;2022-09-09T04:13:12;12.77;;;2.33;;
53873;SDS011;62246;50.938;4.058;2022-09-09T04:15:39;14.40;;;3.30;;
53873;SDS011;62246;50.938;4.058;2022-09-09T04:18:04;12.10;;;2.67;;
53873;SDS011;62246;50.938;4.058;2022-09-09T04:20:30;10.77;;;2.53;;
53873;SDS011;62246;50.938;4.058;2022-09-09T04:22:55;9.40;;;2.50;;
53873;SDS011;62246;50.938;4.058;2022-09-09T04:25:21;12.55;;;2.75;;
53873;SDS011;62246;50.938;4.058;2022-09-09T04:27:46;11.27;;;2.88;;
53873;SDS011;62246;50.938;4.058;2022-09-09T04:30:12;11.35;;;2.83;;
53873;SDS011;62246;50.938;4.058;2022-09-09T04:32:38;13.00;;;2.50;;
53873;SDS011;62246;50.938;4.058;2022-09-09T04:35:03;15.60;;;3.15;;
53873;SDS011;62246;50.938;4.058;2022-09-09T04:37:29;10.57;;;2.70;;
53873;SDS011;62246;50.938;4.058;2022-09-09T04:39:55;9.02;;;2.53;;
53873;SDS011;62246;50.938;4.058;2022-09-09T04:42:20;11.00;;;2.70;;
53873;SDS011;62246;50.938;4.058;2022-09-09T04:44:46;12.38;;;2.60;;
53873;SDS011;62246;50.938;4.058;2022-09-09T04:47:11;16.33;;;2.53;;
53873;SDS011;62246;50.938;4.058;2022-09-09T04:49:38;12.18;;;2.65;;
53873;SDS011;62246;50.938;4.058;2022-09-09T04:52:03;14.80;;;3.00;;
53873;SDS011;62246;50.938;4.058;2022-09-09T04:54:29;12.73;;;2.60;;
53873;SDS011;62246;50.938;4.058;2022-09-09T04:56:54;16.40;;;3.00;;
53873;SDS011;62246;50.938;4.058;2022-09-09T04:59:20;11.98;;;2.60;;
53873;SDS011;62246;50.938;4.058;2022-09-09T05:01:47;14.95;;;3.08;;
53873;SDS011;62246;50.938;4.058;2022-09-09T05:04:12;14.55;;;2.85;;
53873;SDS011;62246;50.938;4.058;2022-09-09T05:06:40;16.15;;;2.55;;
53873;SDS011;62246;50.938;4.058;2022-09-09T05:09:07;13.25;;;2.67;;
53873;SDS011;62246;50.938;4.058;2022-09-09T05:11:34;15.30;;;2.50;;
53873;SDS011;62246;50.938;4.058;2022-09-09T05:14:03;12.57;;;2.55;;
53873;SDS011;62246;50.938;4.058;2022-09-09T05:16:29;13.63;;;3.00;;
53873;SDS011;62246;50.938;4.058;2022-09-09T05:18:55;15.52;;;2.80;;
53873;SDS011;62246;50.938;4.058;2022-09-09T05:21:21;11.93;;;2.80;;
53873;SDS011;62246;50.938;4.058;2022-09-09T05:23:48;12.95;;;3.22;;
53873;SDS011;62246;50.938;4.058;2022-09-09T05:26:14;15.70;;;3.17;;
53873;SDS011;62246;50.938;4.058;2022-09-09T05:28:41;16.08;;;3.05;;
53873;SDS011;62246;50.938;4.058;2022-09-09T05:31:07;13.18;;;2.53;;
53873;SDS011;62246;50.938;4.058;2022-09-09T05:33:34;14.98;;;2.60;;
53873;SDS011;62246;50.938;4.058;2022-09-09T05:36:02;15.82;;;2.55;;
53873;SDS011;62246;50.938;4.058;2022-09-09T05:40:58;13.32;;;2.53;;
53873;SDS011;62246;50.938;4.058;2022-09-09T05:43:25;11.88;;;2.88;;
53873;SDS011;62246;50.938;4.058;2022-09-09T05:45:59;14.05;;;2.70;;
53873;SDS011;62246;50.938;4.058;2022-09-09T05:48:33;13.70;;;2.53;;
53873;SDS011;62246;50.938;4.058;2022-09-09T05:51:00;14.25;;;2.75;;
53873;SDS011;62246;50.938;4.058;2022-09-09T05:53:27;15.63;;;2.85;;
53873;SDS011;62246;50.938;4.058;2022-09-09T05:56:07;13.23;;;2.60;;
53873;SDS011;62246;50.938;4.058;2022-09-09T05:58:37;9.57;;;2.50;;
53873;SDS011;62246;50.938;4.058;2022-09-09T06:01:04;16.38;;;2.60;;
53873;SDS011;62246;50.938;4.058;2022-09-09T06:03:35;11.95;;;2.40;;
53873;SDS011;62246;50.938;4.058;2022-09-09T06:06:02;16.10;;;2.42;;
53873;SDS011;62246;50.938;4.058;2022-09-09T06:08:33;11.73;;;2.53;;
53873;SDS011;62246;50.938;4.058;2022-09-09T06:11:12;10.90;;;2.35;;
53873;SDS011;62246;50.938;4.058;2022-09-09T06:13:40;13.88;;;2.60;;
53873;SDS011;62246;50.938;4.058;2022-09-09T06:16:08;10.60;;;2.20;;
53873;SDS011;62246;50.938;4.058;2022-09-09T06:18:34;11.10;;;2.33;;
53873;SDS011;62246;50.938;4.058;2022-09-09T06:21:00;10.30;;;2.45;;
53873;SDS011;62246;50.938;4.058;2022-09-09T06:23:29;10.77;;;2.17;;
53873;SDS011;62246;50.938;4.058;2022-09-09T06:26:04;15.00;;;2.47;;
53873;SDS011;62246;50.938;4.058;2022-09-09T06:28:32;13.00;;;2.80;;
53873;SDS011;62246;50.938;4.058;2022-09-09T06:30:59;8.85;;;2.22;;
53873;SDS011;62246;50.938;4.058;2022-09-09T06:33:25;12.90;;;2.30;;
53873;SDS011;62246;50.938;4.058;2022-09-09T06:35:52;9.98;;;2.10;;
53873;SDS011;62246;50.938;4.058;2022-09-09T06:38:19;8.88;;;2.13;;
53873;SDS011;62246;50.938;4.058;2022-09-09T06:40:54;8.93;;;1.90;;
53873;SDS011;62246;50.938;4.058;2022-09-09T06:43:21;14.45;;;2.28;;
53873;SDS011;62246;50.938;4.058;2022-09-09T06:48:26;11.02;;;2.30;;
53873;SDS011;62246;50.938;4.058;2022-09-09T06:51:06;8.23;;;1.60;;
53873;SDS011;62246;50.938;4.058;2022-09-09T06:53:36;11.50;;;2.10;;
53873;SDS011;62246;50.938;4.058;2022-09-09T06:58:34;9.45;;;2.17;;
53873;SDS011;62246;50.938;4.058;2022-09-09T07:01:04;9.98;;;1.98;;
53873;SDS011;62246;50.938;4.058;2022-09-09T07:03:31;9.57;;;2.67;;
53873;SDS011;62246;50.938;4.058;2022-09-09T07:05:56;10.77;;;2.30;;
53873;SDS011;62246;50.938;4.058;2022-09-09T07:08:22;13.00;;;2.45;;
53873;SDS011;62246;50.938;4.058;2022-09-09T07:10:49;9.32;;;2.00;;
53873;SDS011;62246;50.938;4.058;2022-09-09T07:13:16;10.07;;;2.38;;
53873;SDS011;62246;50.938;4.058;2022-09-09T07:15:41;11.93;;;2.20;;
53873;SDS011;62246;50.938;4.058;2022-09-09T07:18:07;19.08;;;3.08;;
53873;SDS011;62246;50.938;4.058;2022-09-09T07:20:35;10.70;;;2.35;;
53873;SDS011;62246;50.938;4.058;2022-09-09T07:23:00;10.60;;;2.28;;
53873;SDS011;62246;50.938;4.058;2022-09-09T07:25:25;12.85;;;2.33;;
53873;SDS011;62246;50.938;4.058;2022-09-09T07:27:53;10.30;;;2.47;;
53873;SDS011;62246;50.938;4.058;2022-09-09T07:30:19;13.10;;;2.40;;
53873;SDS011;62246;50.938;4.058;2022-09-09T07:32:46;15.88;;;2.85;;
53873;SDS011;62246;50.938;4.058;2022-09-09T07:35:11;13.15;;;2.15;;
53873;SDS011;62246;50.938;4.058;2022-09-09T07:37:37;10.88;;;2.25;;
53873;SDS011;62246;50.938;4.058;2022-09-09T07:40:03;11.27;;;2.85;;
53873;SDS011;62246;50.938;4.058;2022-09-09T07:42:30;10.00;;;2.50;;
53873;SDS011;62246;50.938;4.058;2022-09-09T07:44:55;10.07;;;2.03;;
53873;SDS011;62246;50.938;4.058;2022-09-09T07:47:21;11.98;;;2.20;;
53873;SDS011;62246;50.938;4.058;2022-09-09T07:49:47;12.40;;;2.22;;
53873;SDS011;62246;50.938;4.058;2022-09-09T07:52:14;14.80;;;2.70;;
53873;SDS011;62246;50.938;4.058;2022-09-09T07:54:40;11.45;;;2.33;;
53873;SDS011;62246;50.938;4.058;2022-09-09T07:57:06;8.57;;;2.30;;
53873;SDS011;62246;50.938;4.058;2022-09-09T07:59:32;10.63;;;1.98;;
53873;SDS011;62246;50.938;4.058;2022-09-09T08:01:58;9.43;;;2.38;;
53873;SDS011;62246;50.938;4.058;2022-09-09T08:04:24;11.63;;;2.30;;
53873;SDS011;62246;50.938;4.058;2022-09-09T08:06:55;11.75;;;2.45;;
53873;SDS011;62246;50.938;4.058;2022-09-09T08:09:22;10.73;;;2.53;;
53873;SDS011;62246;50.938;4.058;2022-09-09T08:11:53;11.52;;;2.25;;
53873;SDS011;62246;50.938;4.058;2022-09-09T08:14:21;10.10;;;2.17;;
53873;SDS011;62246;50.938;4.058;2022-09-09T08:16:48;11.07;;;2.15;;
53873;SDS011;62246;50.938;4.058;2022-09-09T08:19:14;10.00;;;2.25;;
53873;SDS011;62246;50.938;4.058;2022-09-09T08:21:40;9.18;;;2.05;;
53873;SDS011;62246;50.938;4.058;2022-09-09T08:24:07;8.07;;;2.10;;
53873;SDS011;62246;50.938;4.058;2022-09-09T08:26:45;9.30;;;2.15;;
53873;SDS011;62246;50.938;4.058;2022-09-09T08:29:14;11.43;;;2.20;;
53873;SDS011;62246;50.938;4.058;2022-09-09T08:31:49;9.82;;;2.03;;
53873;SDS011;62246;50.938;4.058;2022-09-09T08:34:17;12.98;;;2.53;;
53873;SDS011;62246;50.938;4.058;2022-09-09T08:36:46;11.35;;;2.13;;
53873;SDS011;62246;50.938;4.058;2022-09-09T08:39:14;10.50;;;1.80;;
53873;SDS011;62246;50.938;4.058;2022-09-09T08:44:31;10.55;;;2.28;;
53873;SDS011;62246;50.938;4.058;2022-09-09T08:52:20;8.73;;;1.95;;
53873;SDS011;62246;50.938;4.058;2022-09-09T08:54:50;14.45;;;2.30;;
53873;SDS011;62246;50.938;4.058;2022-09-09T08:57:19;10.23;;;2.00;;
53873;SDS011;62246;50.938;4.058;2022-09-09T08:59:51;10.18;;;2.05;;
53873;SDS011;62246;50.938;4.058;2022-09-09T09:02:27;9.75;;;2.30;;
53873;SDS011;62246;50.938;4.058;2022-09-09T09:10:47;10.32;;;2.13;;
53873;SDS011;62246;50.938;4.058;2022-09-09T09:15:46;10.25;;;2.20;;
53873;SDS011;62246;50.938;4.058;2022-09-09T09:18:18;7.88;;;1.90;;
53873;SDS011;62246;50.938;4.058;2022-09-09T09:21:05;8.52;;;1.70;;
53873;SDS011;62246;50.938;4.058;2022-09-09T09:23:43;7.88;;;2.13;;
53873;SDS011;62246;50.938;4.058;2022-09-09T09:26:13;11.77;;;2.30;;
53873;SDS011;62246;50.938;4.058;2022-09-09T09:28:40;9.10;;;1.95;;
53873;SDS011;62246;50.938;4.058;2022-09-09T09:31:07;9.23;;;1.80;;
53873;SDS011;62246;50.938;4.058;2022-09-09T09:36:11;12.52;;;1.98;;
53873;SDS011;62246;50.938;4.058;2022-09-09T09:38:40;9.13;;;2.00;;
53873;SDS011;62246;50.938;4.058;2022-09-09T09:41:33;8.70;;;1.70;;
53873;SDS011;62246;50.938;4.058;2022-09-09T09:43:59;7.80;;;1.92;;
53873;SDS011;62246;50.938;4.058;2022-09-09T09:46:26;10.77;;;2.08;;
53873;SDS011;62246;50.938;4.058;2022-09-09T09:48:58;8.40;;;1.83;;
53873;SDS011;62246;50.938;4.058;2022-09-09T09:51:23;8.98;;;1.85;;
53873;SDS011;62246;50.938;4.058;2022-09-09T09:53:50;7.20;;;1.85;;
53873;SDS011;62246;50.938;4.058;2022-09-09T09:56:17;8.85;;;1.77;;
53873;SDS011;62246;50.938;4.058;2022-09-09T09:58:52;9.48;;;1.70;;
53873;SDS011;62246;50.938;4.058;2022-09-09T10:01:29;7.28;;;1.67;;
53873;SDS011;62246;50.938;4.058;2022-09-09T10:04:19;9.07;;;1.73;;
53873;SDS011;62246;50.938;4.058;2022-09-09T10:06:51;6.00;;;1.75;;
53873;SDS011;62246;50.938;4.058;2022-09-09T10:09:24;6.43;;;1.50;;
53873;SDS011;62246;50.938;4.058;2022-09-09T10:11:55;7.47;;;1.55;;
53873;SDS011;62246;50.938;4.058;2022-09-09T10:14:35;5.18;;;1.40;;
53873;SDS011;62246;50.938;4.058;2022-09-09T10:19:42;10.57;;;1.92;;
53873;SDS011;62246;50.938;4.058;2022-09-09T10:22:26;6.97;;;1.70;;
53873;SDS011;62246;50.938;4.058;2022-09-09T10:32:41;6.68;;;1.50;;
53873;SDS011;62246;50.938;4.058;2022-09-09T11:18:55;4.30;;;1.00;;
53873;SDS011;62246;50.938;4.058;2022-09-09T11:51:55;7.35;;;1.50;;
53873;SDS011;62246;50.938;4.058;2022-09-09T11:54:31;4.72;;;1.50;;
53873;SDS011;62246;50.938;4.058;2022-09-09T11:56:58;6.82;;;1.48;;
53873;SDS011;62246;50.938;4.058;2022-09-09T12:27:24;5.17;;;1.60;;
53873;SDS011;62246;50.938;4.058;2022-09-09T12:32:25;5.97;;;1.58;;
53873;SDS011;62246;50.938;4.058;2022-09-09T12:35:02;7.35;;;1.42;;
53873;SDS011;62246;50.938;4.058;2022-09-09T12:37:37;5.25;;;1.45;;
53873;SDS011;62246;50.938;4.058;2022-09-09T12:40:06;4.10;;;1.20;;
53873;SDS011;62246;50.938;4.058;2022-09-09T12:42:45;7.70;;;1.48;;
53873;SDS011;62246;50.938;4.058;2022-09-09T12:45:15;5.78;;;1.20;;
53873;SDS011;62246;50.938;4.058;2022-09-09T12:48:00;3.47;;;1.25;;
53873;SDS011;62246;50.938;4.058;2022-09-09T12:50:29;3.28;;;1.00;;
53873;SDS011;62246;50.938;4.058;2022-09-09T12:53:07;4.18;;;1.25;;
53873;SDS011;62246;50.938;4.058;2022-09-09T12:55:36;4.10;;;1.30;;
53873;SDS011;62246;50.938;4.058;2022-09-09T12:58:04;2.90;;;1.15;;
53873;SDS011;62246;50.938;4.058;2022-09-09T13:00:32;5.53;;;1.35;;
53873;SDS011;62246;50.938;4.058;2022-09-09T13:03:02;5.95;;;1.40;;
53873;SDS011;62246;50.938;4.058;2022-09-09T13:05:41;4.85;;;1.20;;
53873;SDS011;62246;50.938;4.058;2022-09-09T13:08:11;5.53;;;1.20;;
53873;SDS011;62246;50.938;4.058;2022-09-09T13:10:38;3.15;;;1.30;;
53873;SDS011;62246;50.938;4.058;2022-09-09T13:13:15;6.10;;;1.20;;
53873;SDS011;62246;50.938;4.058;2022-09-09T13:15:49;3.25;;;1.00;;
53873;SDS011;62246;50.938;4.058;2022-09-09T13:18:17;4.45;;;1.20;;
53873;SDS011;62246;50.938;4.058;2022-09-09T13:20:47;7.90;;;1.55;;
53873;SDS011;62246;50.938;4.058;2022-09-09T13:23:14;7.03;;;1.40;;
53873;SDS011;62246;50.938;4.058;2022-09-09T13:25:42;5.25;;;1.13;;
53873;SDS011;62246;50.938;4.058;2022-09-09T13:28:20;2.88;;;1.10;;
53873;SDS011;62246;50.938;4.058;2022-09-09T13:30:55;3.78;;;1.20;;
53873;SDS011;62246;50.938;4.058;2022-09-09T13:33:33;5.25;;;1.42;;
53873;SDS011;62246;50.938;4.058;2022-09-09T13:38:36;5.17;;;1.10;;
53873;SDS011;62246;50.938;4.058;2022-09-09T13:41:25;4.90;;;1.25;;
53873;SDS011;62246;50.938;4.058;2022-09-09T13:43:55;5.53;;;1.10;;
53873;SDS011;62246;50.938;4.058;2022-09-09T13:46:26;5.28;;;1.00;;
53873;SDS011;62246;50.938;4.058;2022-09-09T13:51:46;6.95;;;1.23;;
53873;SDS011;62246;50.938;4.058;2022-09-09T13:54:16;4.40;;;1.27;;
53873;SDS011;62246;50.938;4.058;2022-09-09T13:56:43;4.40;;;1.00;;
53873;SDS011;62246;50.938;4.058;2022-09-09T13:59:19;3.97;;;1.05;;
53873;SDS011;62246;50.938;4.058;2022-09-09T14:01:45;2.88;;;0.93;;
53873;SDS011;62246;50.938;4.058;2022-09-09T14:04:11;2.47;;;1.02;;
53873;SDS011;62246;50.938;4.058;2022-09-09T14:06:36;4.65;;;1.35;;
53873;SDS011;62246;50.938;4.058;2022-09-09T14:09:09;5.40;;;1.17;;
53873;SDS011;62246;50.938;4.058;2022-09-09T14:11:36;3.58;;;1.20;;
53873;SDS011;62246;50.938;4.058;2022-09-09T14:14:03;2.78;;;1.35;;
53873;SDS011;62246;50.938;4.058;2022-09-09T14:16:28;4.95;;;1.30;;
53873;SDS011;62246;50.938;4.058;2022-09-09T14:18:54;5.00;;;1.27;;
53873;SDS011;62246;50.938;4.058;2022-09-09T14:21:24;2.97;;;1.08;;
53873;SDS011;62246;50.938;4.058;2022-09-09T14:23:50;4.35;;;1.30;;
53873;SDS011;62246;50.938;4.058;2022-09-09T14:26:17;6.63;;;1.25;;
53873;SDS011;62246;50.938;4.058;2022-09-09T14:28:43;6.18;;;1.25;;
53873;SDS011;62246;50.938;4.058;2022-09-09T14:31:10;4.55;;;1.25;;
53873;SDS011;62246;50.938;4.058;2022-09-09T14:33:35;7.03;;;1.23;;
53873;SDS011;62246;50.938;4.058;2022-09-09T14:36:01;5.70;;;1.17;;
53873;SDS011;62246;50.938;4.058;2022-09-09T14:38:29;4.90;;;1.23;;
53873;SDS011;62246;50.938;4.058;2022-09-09T14:40:59;4.55;;;1.33;;
53873;SDS011;62246;50.938;4.058;2022-09-09T14:43:28;3.83;;;1.30;;
53873;SDS011;62246;50.938;4.058;2022-09-09T14:45:55;2.97;;;1.20;;
53873;SDS011;62246;50.938;4.058;2022-09-09T14:48:20;3.80;;;1.20;;
53873;SDS011;62246;50.938;4.058;2022-09-09T14:50:46;5.72;;;1.05;;
53873;SDS011;62246;50.938;4.058;2022-09-09T14:53:11;4.40;;;1.20;;
53873;SDS011;62246;50.938;4.058;2022-09-09T14:55:37;3.10;;;1.20;;
53873;SDS011;62246;50.938;4.058;2022-09-09T14:58:03;2.97;;;1.02;;
53873;SDS011;62246;50.938;4.058;2022-09-09T15:00:29;2.35;;;0.90;;
53873;SDS011;62246;50.938;4.058;2022-09-09T15:02:54;5.30;;;1.30;;
53873;SDS011;62246;50.938;4.058;2022-09-09T15:05:20;5.63;;;1.30;;
53873;SDS011;62246;50.938;4.058;2022-09-09T15:07:46;4.03;;;1.23;;
53873;SDS011;62246;50.938;4.058;2022-09-09T15:10:13;4.72;;;1.33;;
53873;SDS011;62246;50.938;4.058;2022-09-09T15:12:38;7.72;;;1.40;;
53873;SDS011;62246;50.938;4.058;2022-09-09T15:15:04;2.78;;;1.10;;
53873;SDS011;62246;50.938;4.058;2022-09-09T15:17:30;3.72;;;1.20;;
53873;SDS011;62246;50.938;4.058;2022-09-09T15:19:56;7.68;;;1.15;;
53873;SDS011;62246;50.938;4.058;2022-09-09T15:22:21;5.07;;;1.35;;
53873;SDS011;62246;50.938;4.058;2022-09-09T15:24:47;4.15;;;1.30;;
53873;SDS011;62246;50.938;4.058;2022-09-09T15:27:12;4.45;;;1.30;;
53873;SDS011;62246;50.938;4.058;2022-09-09T15:29:39;2.80;;;1.35;;
53873;SDS011;62246;50.938;4.058;2022-09-09T15:32:06;8.82;;;2.30;;
53873;SDS011;62246;50.938;4.058;2022-09-09T15:34:32;9.32;;;2.58;;
53873;SDS011;62246;50.938;4.058;2022-09-09T15:36:58;7.25;;;2.10;;
53873;SDS011;62246;50.938;4.058;2022-09-09T15:39:25;5.50;;;1.83;;
53873;SDS011;62246;50.938;4.058;2022-09-09T15:41:50;7.18;;;2.30;;
53873;SDS011;62246;50.938;4.058;2022-09-09T15:44:16;4.47;;;1.73;;
53873;SDS011;62246;50.938;4.058;2022-09-09T15:46:50;4.25;;;1.50;;
53873;SDS011;62246;50.938;4.058;2022-09-09T15:49:22;5.63;;;1.80;;
53873;SDS011;62246;50.938;4.058;2022-09-09T15:51:53;5.28;;;1.70;;
53873;SDS011;62246;50.938;4.058;2022-09-09T15:54:23;4.03;;;1.60;;
53873;SDS011;62246;50.938;4.058;2022-09-09T15:56:53;6.57;;;1.60;;
53873;SDS011;62246;50.938;4.058;2022-09-09T15:59:21;4.68;;;1.60;;
53873;SDS011;62246;50.938;4.058;2022-09-09T16:01:48;7.20;;;2.00;;
53873;SDS011;62246;50.938;4.058;2022-09-09T16:04:16;5.05;;;1.90;;
53873;SDS011;62246;50.938;4.058;2022-09-09T16:06:51;4.53;;;1.65;;
53873;SDS011;62246;50.938;4.058;2022-09-09T16:09:18;7.05;;;1.88;;
53873;SDS011;62246;50.938;4.058;2022-09-09T16:11:44;5.20;;;2.05;;
53873;SDS011;62246;50.938;4.058;2022-09-09T16:14:09;4.97;;;2.08;;
53873;SDS011;62246;50.938;4.058;2022-09-09T16:16:36;7.63;;;2.47;;
53873;SDS011;62246;50.938;4.058;2022-09-09T16:19:03;7.45;;;1.95;;
53873;SDS011;62246;50.938;4.058;2022-09-09T16:21:32;4.88;;;1.70;;
53873;SDS011;62246;50.938;4.058;2022-09-09T16:24:00;7.47;;;2.28;;
53873;SDS011;62246;50.938;4.058;2022-09-09T16:26:28;9.57;;;2.88;;
53873;SDS011;62246;50.938;4.058;2022-09-09T16:28:55;10.05;;;3.05;;
53873;SDS011;62246;50.938;4.058;2022-09-09T16:31:22;10.55;;;3.03;;
53873;SDS011;62246;50.938;4.058;2022-09-09T16:33:48;11.07;;;2.83;;
53873;SDS011;62246;50.938;4.058;2022-09-09T16:36:16;7.35;;;2.90;;
53873;SDS011;62246;50.938;4.058;2022-09-09T16:38:44;8.82;;;2.60;;
53873;SDS011;62246;50.938;4.058;2022-09-09T16:41:10;5.38;;;1.42;;
53873;SDS011;62246;50.938;4.058;2022-09-09T16:43:37;4.75;;;1.40;;
53873;SDS011;62246;50.938;4.058;2022-09-09T16:46:03;6.65;;;1.80;;
53873;SDS011;62246;50.938;4.058;2022-09-09T16:48:37;4.82;;;1.40;;
53873;SDS011;62246;50.938;4.058;2022-09-09T16:51:06;4.57;;;1.75;;
53873;SDS011;62246;50.938;4.058;2022-09-09T16:53:36;2.15;;;1.00;;
53873;SDS011;62246;50.938;4.058;2022-09-09T16:56:07;3.13;;;1.58;;
53873;SDS011;62246;50.938;4.058;2022-09-09T16:58:37;3.85;;;1.30;;
53873;SDS011;62246;50.938;4.058;2022-09-09T17:01:03;2.17;;;1.00;;
53873;SDS011;62246;50.938;4.058;2022-09-09T17:03:29;3.90;;;1.20;;
53873;SDS011;62246;50.938;4.058;2022-09-09T17:05:56;3.85;;;1.20;;
53873;SDS011;62246;50.938;4.058;2022-09-09T17:08:23;4.07;;;1.20;;
53873;SDS011;62246;50.938;4.058;2022-09-09T17:10:48;3.90;;;1.15;;
53873;SDS011;62246;50.938;4.058;2022-09-09T17:13:15;4.00;;;1.10;;
53873;SDS011;62246;50.938;4.058;2022-09-09T17:15:40;5.10;;;1.23;;
53873;SDS011;62246;50.938;4.058;2022-09-09T17:18:08;3.13;;;1.20;;
53873;SDS011;62246;50.938;4.058;2022-09-09T17:20:35;5.03;;;1.10;;
53873;SDS011;62246;50.938;4.058;2022-09-09T17:23:02;4.57;;;1.23;;
53873;SDS011;62246;50.938;4.058;2022-09-09T17:25:27;3.85;;;1.17;;
53873;SDS011;62246;50.938;4.058;2022-09-09T17:27:52;3.85;;;1.30;;
53873;SDS011;62246;50.938;4.058;2022-09-09T17:30:18;3.35;;;1.30;;
53873;SDS011;62246;50.938;4.058;2022-09-09T17:32:43;4.32;;;1.20;;
53873;SDS011;62246;50.938;4.058;2022-09-09T17:35:09;4.75;;;1.20;;
53873;SDS011;62246;50.938;4.058;2022-09-09T17:37:34;7.43;;;1.20;;
53873;SDS011;62246;50.938;4.058;2022-09-09T17:40:00;5.72;;;1.17;;
53873;SDS011;62246;50.938;4.058;2022-09-09T17:42:25;5.22;;;1.30;;
53873;SDS011;62246;50.938;4.058;2022-09-09T17:44:51;8.45;;;1.33;;
53873;SDS011;62246;50.938;4.058;2022-09-09T17:47:16;7.18;;;1.35;;
53873;SDS011;62246;50.938;4.058;2022-09-09T17:49:42;7.05;;;1.10;;
53873;SDS011;62246;50.938;4.058;2022-09-09T17:52:07;3.40;;;0.98;;
53873;SDS011;62246;50.938;4.058;2022-09-09T17:54:32;4.57;;;1.27;;
53873;SDS011;62246;50.938;4.058;2022-09-09T17:56:58;3.72;;;1.15;;
53873;SDS011;62246;50.938;4.058;2022-09-09T17:59:24;7.13;;;1.65;;
53873;SDS011;62246;50.938;4.058;2022-09-09T18:01:50;6.70;;;1.23;;
53873;SDS011;62246;50.938;4.058;2022-09-09T18:04:17;6.43;;;1.38;;
53873;SDS011;62246;50.938;4.058;2022-09-09T18:06:44;5.78;;;1.33;;
53873;SDS011;62246;50.938;4.058;2022-09-09T18:09:12;6.75;;;1.23;;
53873;SDS011;62246;50.938;4.058;2022-09-09T18:11:41;5.50;;;1.40;;